sensor_id;sensor_type;location;lat;lon;timestamp;temperature;humidity
34766;DHT22;20984;43.508;1.504;2023-02-21T00:02:17;8.60;99.90
34766;DHT22;20984;43.508;1.504;2023-02-21T00:05:01;8.60;99.90
34766;DHT22;20984;43.508;1.504;2023-02-21T00:07:45;8.60;99.90
34766;DHT22;20984;43.508;1.504;2023-02-21T00:10:29;8.60;99.90
34766;DHT22;20984;43.508;1.504;2023-02-21T00:13:13;8.50;99.90
34766;DHT22;20984;43.508;1.504;2023-02-21T00:15:57;8.40;99.90
34766;DHT22;20984;43.508;1.504;2023-02-21T00:18:42;8.30;99.90
34766;DHT22;20984;43.508;1.504;2023-02-21T00:21:29;8.30;99.90
34766;DHT22;20984;43.508;1.504;2023-02-21T00:24:18;8.30;99.90
34766;DHT22;20984;43.508;1.504;2023-02-21T00:27:03;8.30;99.90
34766;DHT22;20984;43.508;1.504;2023-02-21T00:29:48;8.20;99.90
34766;DHT22;20984;43.508;1.504;2023-02-21T00:32:33;8.10;99.90
34766;DHT22;20984;43.508;1.504;2023-02-21T00:35:17;8.10;99.90
34766;DHT22;20984;43.508;1.504;2023-02-21T00:38:01;8.00;99.90
34766;DHT22;20984;43.508;1.504;2023-02-21T00:40:46;8.00;99.90
34766;DHT22;20984;43.508;1.504;2023-02-21T00:43:32;7.90;99.90
34766;DHT22;20984;43.508;1.504;2023-02-21T00:46:16;7.80;99.90
34766;DHT22;20984;43.508;1.504;2023-02-21T00:49:01;7.80;99.90
34766;DHT22;20984;43.508;1.504;2023-02-21T00:51:46;7.80;99.90
34766;DHT22;20984;43.508;1.504;2023-02-21T00:54:30;7.60;99.90
34766;DHT22;20984;43.508;1.504;2023-02-21T00:57:14;7.60;99.90
34766;DHT22;20984;43.508;1.504;2023-02-21T00:59:58;7.60;99.90
34766;DHT22;20984;43.508;1.504;2023-02-21T01:02:43;7.60;99.90
34766;DHT22;20984;43.508;1.504;2023-02-21T01:05:27;7.60;99.90
34766;DHT22;20984;43.508;1.504;2023-02-21T01:08:11;7.60;99.90
34766;DHT22;20984;43.508;1.504;2023-02-21T01:10:56;7.60;99.90
34766;DHT22;20984;43.508;1.504;2023-02-21T01:13:40;7.50;99.90
34766;DHT22;20984;43.508;1.504;2023-02-21T01:16:30;7.50;99.90
34766;DHT22;20984;43.508;1.504;2023-02-21T01:19:16;7.50;99.90
34766;DHT22;20984;43.508;1.504;2023-02-21T01:22:01;7.50;99.90
34766;DHT22;20984;43.508;1.504;2023-02-21T01:24:48;7.50;99.90
34766;DHT22;20984;43.508;1.504;2023-02-21T01:27:33;7.50;99.90
34766;DHT22;20984;43.508;1.504;2023-02-21T01:30:17;7.50;99.90
34766;DHT22;20984;43.508;1.504;2023-02-21T01:33:01;7.60;99.90
34766;DHT22;20984;43.508;1.504;2023-02-21T01:35:45;7.70;99.90
34766;DHT22;20984;43.508;1.504;2023-02-21T01:38:35;7.70;99.90
34766;DHT22;20984;43.508;1.504;2023-02-21T01:41:20;7.80;99.90
34766;DHT22;20984;43.508;1.504;2023-02-21T01:47:11;7.90;99.90
34766;DHT22;20984;43.508;1.504;2023-02-21T01:49:57;7.90;99.90
34766;DHT22;20984;43.508;1.504;2023-02-21T01:52:41;8.00;99.90
34766;DHT22;20984;43.508;1.504;2023-02-21T01:55:25;7.90;99.90
34766;DHT22;20984;43.508;1.504;2023-02-21T01:58:10;8.00;99.90
34766;DHT22;20984;43.508;1.504;2023-02-21T02:00:54;8.00;99.90
34766;DHT22;20984;43.508;1.504;2023-02-21T02:03:38;8.00;99.90
34766;DHT22;20984;43.508;1.504;2023-02-21T02:06:23;8.00;99.90
34766;DHT22;20984;43.508;1.504;2023-02-21T02:09:18;8.10;99.90
34766;DHT22;20984;43.508;1.504;2023-02-21T02:18:21;8.10;99.90
34766;DHT22;20984;43.508;1.504;2023-02-21T02:24:04;8.10;99.90
34766;DHT22;20984;43.508;1.504;2023-02-21T02:26:59;8.20;99.90
34766;DHT22;20984;43.508;1.504;2023-02-21T02:35:33;8.30;99.90
34766;DHT22;20984;43.508;1.504;2023-02-21T02:43:38;8.30;99.90
34766;DHT22;20984;43.508;1.504;2023-02-21T02:46:15;8.40;99.90
34766;DHT22;20984;43.508;1.504;2023-02-21T02:48:52;8.40;99.90
34766;DHT22;20984;43.508;1.504;2023-02-21T02:51:19;8.30;99.90
34766;DHT22;20984;43.508;1.504;2023-02-21T02:53:46;8.30;99.90
34766;DHT22;20984;43.508;1.504;2023-02-21T02:56:15;8.30;99.90
34766;DHT22;20984;43.508;1.504;2023-02-21T02:58:49;8.30;99.90
34766;DHT22;20984;43.508;1.504;2023-02-21T03:11:59;8.40;99.90
34766;DHT22;20984;43.508;1.504;2023-02-21T03:14:30;8.40;99.90
34766;DHT22;20984;43.508;1.504;2023-02-21T03:17:01;8.50;99.90
34766;DHT22;20984;43.508;1.504;2023-02-21T03:19:30;8.50;99.90
34766;DHT22;20984;43.508;1.504;2023-02-21T03:24:33;8.50;99.90
34766;DHT22;20984;43.508;1.504;2023-02-21T03:27:04;8.50;99.90
34766;DHT22;20984;43.508;1.504;2023-02-21T03:29:32;8.50;99.90
34766;DHT22;20984;43.508;1.504;2023-02-21T03:32:02;8.50;99.90
34766;DHT22;20984;43.508;1.504;2023-02-21T03:34:40;8.50;99.90
34766;DHT22;20984;43.508;1.504;2023-02-21T03:37:09;8.50;99.90
34766;DHT22;20984;43.508;1.504;2023-02-21T03:39:42;8.50;99.90
34766;DHT22;20984;43.508;1.504;2023-02-21T03:42:07;8.50;99.90
34766;DHT22;20984;43.508;1.504;2023-02-21T03:44:33;8.50;99.90
34766;DHT22;20984;43.508;1.504;2023-02-21T03:46:58;8.60;99.90
34766;DHT22;20984;43.508;1.504;2023-02-21T03:49:24;8.60;99.90
34766;DHT22;20984;43.508;1.504;2023-02-21T03:51:50;8.50;99.90
34766;DHT22;20984;43.508;1.504;2023-02-21T03:54:16;8.50;99.90
34766;DHT22;20984;43.508;1.504;2023-02-21T03:56:41;8.50;99.90
34766;DHT22;20984;43.508;1.504;2023-02-21T03:59:07;8.50;99.90
34766;DHT22;20984;43.508;1.504;2023-02-21T04:01:33;8.50;99.90
34766;DHT22;20984;43.508;1.504;2023-02-21T04:03:58;8.50;99.90
34766;DHT22;20984;43.508;1.504;2023-02-21T04:06:24;8.50;99.90
34766;DHT22;20984;43.508;1.504;2023-02-21T04:08:50;8.50;99.90
34766;DHT22;20984;43.508;1.504;2023-02-21T04:11:19;8.50;99.90
34766;DHT22;20984;43.508;1.504;2023-02-21T04:13:45;8.50;99.90
34766;DHT22;20984;43.508;1.504;2023-02-21T04:16:10;8.60;99.90
34766;DHT22;20984;43.508;1.504;2023-02-21T04:18:36;8.60;99.90
34766;DHT22;20984;43.508;1.504;2023-02-21T04:21:01;8.60;99.90
34766;DHT22;20984;43.508;1.504;2023-02-21T04:23:27;8.60;99.90
34766;DHT22;20984;43.508;1.504;2023-02-21T04:25:53;8.50;99.90
34766;DHT22;20984;43.508;1.504;2023-02-21T04:28:19;8.50;99.90
34766;DHT22;20984;43.508;1.504;2023-02-21T04:30:44;8.50;99.90
34766;DHT22;20984;43.508;1.504;2023-02-21T04:33:10;8.50;99.90
34766;DHT22;20984;43.508;1.504;2023-02-21T04:35:36;8.50;99.90
34766;DHT22;20984;43.508;1.504;2023-02-21T04:38:02;8.50;99.90
34766;DHT22;20984;43.508;1.504;2023-02-21T04:40:28;8.50;99.90
34766;DHT22;20984;43.508;1.504;2023-02-21T04:42:53;8.50;99.90
34766;DHT22;20984;43.508;1.504;2023-02-21T04:45:19;8.60;99.90
34766;DHT22;20984;43.508;1.504;2023-02-21T04:47:44;8.70;99.90
34766;DHT22;20984;43.508;1.504;2023-02-21T04:50:10;8.60;99.90
34766;DHT22;20984;43.508;1.504;2023-02-21T04:52:36;8.60;99.90
34766;DHT22;20984;43.508;1.504;2023-02-21T04:55:02;8.60;99.90
34766;DHT22;20984;43.508;1.504;2023-02-21T04:57:27;8.60;99.90
34766;DHT22;20984;43.508;1.504;2023-02-21T04:59:58;8.60;99.90
34766;DHT22;20984;43.508;1.504;2023-02-21T05:02:24;8.70;99.90
34766;DHT22;20984;43.508;1.504;2023-02-21T05:04:50;8.60;99.90
34766;DHT22;20984;43.508;1.504;2023-02-21T05:07:16;8.70;99.90
34766;DHT22;20984;43.508;1.504;2023-02-21T05:09:41;8.60;99.90
34766;DHT22;20984;43.508;1.504;2023-02-21T05:12:07;8.60;99.90
34766;DHT22;20984;43.508;1.504;2023-02-21T05:14:39;8.60;99.90
34766;DHT22;20984;43.508;1.504;2023-02-21T05:17:05;8.60;99.90
34766;DHT22;20984;43.508;1.504;2023-02-21T05:19:31;8.60;99.90
34766;DHT22;20984;43.508;1.504;2023-02-21T05:21:59;8.70;99.90
34766;DHT22;20984;43.508;1.504;2023-02-21T05:24:27;8.60;99.90
34766;DHT22;20984;43.508;1.504;2023-02-21T05:26:53;8.60;99.90
34766;DHT22;20984;43.508;1.504;2023-02-21T05:29:19;8.60;99.90
34766;DHT22;20984;43.508;1.504;2023-02-21T05:31:45;8.60;99.90
34766;DHT22;20984;43.508;1.504;2023-02-21T05:34:12;8.60;99.90
34766;DHT22;20984;43.508;1.504;2023-02-21T05:36:38;8.60;99.90
34766;DHT22;20984;43.508;1.504;2023-02-21T05:39:05;8.60;99.90
34766;DHT22;20984;43.508;1.504;2023-02-21T05:41:31;8.70;99.90
34766;DHT22;20984;43.508;1.504;2023-02-21T05:43:56;8.70;99.90
34766;DHT22;20984;43.508;1.504;2023-02-21T05:46:25;8.70;99.90
34766;DHT22;20984;43.508;1.504;2023-02-21T05:48:52;8.70;99.90
34766;DHT22;20984;43.508;1.504;2023-02-21T05:51:19;8.80;99.90
34766;DHT22;20984;43.508;1.504;2023-02-21T05:53:45;8.80;99.90
34766;DHT22;20984;43.508;1.504;2023-02-21T05:56:11;8.70;99.90
34766;DHT22;20984;43.508;1.504;2023-02-21T05:58:37;8.70;99.90
34766;DHT22;20984;43.508;1.504;2023-02-21T06:01:04;8.80;99.90
34766;DHT22;20984;43.508;1.504;2023-02-21T06:03:30;8.80;99.90
34766;DHT22;20984;43.508;1.504;2023-02-21T06:05:56;8.80;99.90
34766;DHT22;20984;43.508;1.504;2023-02-21T06:08:22;8.70;99.90
34766;DHT22;20984;43.508;1.504;2023-02-21T06:10:47;8.80;99.90
34766;DHT22;20984;43.508;1.504;2023-02-21T06:13:13;8.80;99.90
34766;DHT22;20984;43.508;1.504;2023-02-21T06:15:39;8.80;99.90
34766;DHT22;20984;43.508;1.504;2023-02-21T06:18:04;8.80;99.90
34766;DHT22;20984;43.508;1.504;2023-02-21T06:20:30;8.80;99.90
34766;DHT22;20984;43.508;1.504;2023-02-21T06:22:56;8.80;99.90
34766;DHT22;20984;43.508;1.504;2023-02-21T06:25:22;8.90;99.90
34766;DHT22;20984;43.508;1.504;2023-02-21T06:27:48;8.90;99.90
34766;DHT22;20984;43.508;1.504;2023-02-21T06:30:14;8.90;99.90
34766;DHT22;20984;43.508;1.504;2023-02-21T06:32:41;8.90;99.90
34766;DHT22;20984;43.508;1.504;2023-02-21T06:35:07;8.90;99.90
34766;DHT22;20984;43.508;1.504;2023-02-21T06:37:33;8.90;99.90
34766;DHT22;20984;43.508;1.504;2023-02-21T06:39:59;9.00;99.90
34766;DHT22;20984;43.508;1.504;2023-02-21T06:42:24;9.00;99.90
34766;DHT22;20984;43.508;1.504;2023-02-21T06:44:50;9.00;99.90
34766;DHT22;20984;43.508;1.504;2023-02-21T06:47:16;9.00;99.90
34766;DHT22;20984;43.508;1.504;2023-02-21T06:49:42;8.90;99.90
34766;DHT22;20984;43.508;1.504;2023-02-21T06:52:08;9.00;99.90
34766;DHT22;20984;43.508;1.504;2023-02-21T06:54:35;9.00;99.90
34766;DHT22;20984;43.508;1.504;2023-02-21T06:57:00;9.00;99.90
34766;DHT22;20984;43.508;1.504;2023-02-21T06:59:29;9.00;99.90
34766;DHT22;20984;43.508;1.504;2023-02-21T07:01:56;9.00;99.90
34766;DHT22;20984;43.508;1.504;2023-02-21T07:04:21;9.00;99.90
34766;DHT22;20984;43.508;1.504;2023-02-21T07:06:47;9.00;99.90
34766;DHT22;20984;43.508;1.504;2023-02-21T07:09:13;9.00;99.90
34766;DHT22;20984;43.508;1.504;2023-02-21T07:11:39;9.10;99.90
34766;DHT22;20984;43.508;1.504;2023-02-21T07:14:05;9.10;99.90
34766;DHT22;20984;43.508;1.504;2023-02-21T07:16:31;9.10;99.90
34766;DHT22;20984;43.508;1.504;2023-02-21T07:18:56;9.20;99.90
34766;DHT22;20984;43.508;1.504;2023-02-21T07:21:24;9.20;99.90
34766;DHT22;20984;43.508;1.504;2023-02-21T07:23:50;9.20;99.90
34766;DHT22;20984;43.508;1.504;2023-02-21T07:26:15;9.30;99.90
34766;DHT22;20984;43.508;1.504;2023-02-21T07:28:41;9.30;99.90
34766;DHT22;20984;43.508;1.504;2023-02-21T07:31:07;9.30;99.90
34766;DHT22;20984;43.508;1.504;2023-02-21T07:33:35;9.40;99.90
34766;DHT22;20984;43.508;1.504;2023-02-21T07:36:00;9.50;99.90
34766;DHT22;20984;43.508;1.504;2023-02-21T07:38:28;9.50;99.90
34766;DHT22;20984;43.508;1.504;2023-02-21T07:40:58;9.60;99.90
34766;DHT22;20984;43.508;1.504;2023-02-21T07:43:28;9.60;99.90
34766;DHT22;20984;43.508;1.504;2023-02-21T07:45:54;9.70;99.90
34766;DHT22;20984;43.508;1.504;2023-02-21T07:48:21;9.70;99.90
34766;DHT22;20984;43.508;1.504;2023-02-21T07:50:47;9.70;99.90
34766;DHT22;20984;43.508;1.504;2023-02-21T07:53:13;9.70;99.90
34766;DHT22;20984;43.508;1.504;2023-02-21T07:55:39;9.80;99.90
34766;DHT22;20984;43.508;1.504;2023-02-21T07:58:05;9.80;99.90
34766;DHT22;20984;43.508;1.504;2023-02-21T08:00:32;9.90;99.90
34766;DHT22;20984;43.508;1.504;2023-02-21T08:02:58;10.00;99.90
34766;DHT22;20984;43.508;1.504;2023-02-21T08:05:24;10.00;99.90
34766;DHT22;20984;43.508;1.504;2023-02-21T08:07:49;10.10;99.90
34766;DHT22;20984;43.508;1.504;2023-02-21T08:10:25;10.10;99.90
34766;DHT22;20984;43.508;1.504;2023-02-21T08:12:51;10.20;99.90
34766;DHT22;20984;43.508;1.504;2023-02-21T08:15:17;10.20;99.90
34766;DHT22;20984;43.508;1.504;2023-02-21T08:17:43;10.20;99.90
34766;DHT22;20984;43.508;1.504;2023-02-21T08:20:09;10.20;99.90
34766;DHT22;20984;43.508;1.504;2023-02-21T08:22:37;10.20;99.90
34766;DHT22;20984;43.508;1.504;2023-02-21T08:25:03;10.20;99.90
34766;DHT22;20984;43.508;1.504;2023-02-21T08:27:29;10.30;99.90
34766;DHT22;20984;43.508;1.504;2023-02-21T08:29:55;10.30;99.90
34766;DHT22;20984;43.508;1.504;2023-02-21T08:32:20;10.30;99.90
34766;DHT22;20984;43.508;1.504;2023-02-21T08:34:47;10.50;99.90
34766;DHT22;20984;43.508;1.504;2023-02-21T08:37:13;10.50;99.90
34766;DHT22;20984;43.508;1.504;2023-02-21T08:39:52;10.60;99.90
34766;DHT22;20984;43.508;1.504;2023-02-21T08:42:21;10.70;99.90
34766;DHT22;20984;43.508;1.504;2023-02-21T08:44:47;10.80;99.90
34766;DHT22;20984;43.508;1.504;2023-02-21T08:47:14;10.90;99.90
34766;DHT22;20984;43.508;1.504;2023-02-21T08:49:43;10.90;99.90
34766;DHT22;20984;43.508;1.504;2023-02-21T08:52:09;11.00;99.90
34766;DHT22;20984;43.508;1.504;2023-02-21T08:54:35;11.00;99.90
34766;DHT22;20984;43.508;1.504;2023-02-21T08:57:01;11.10;99.90
34766;DHT22;20984;43.508;1.504;2023-02-21T08:59:27;11.10;99.90
34766;DHT22;20984;43.508;1.504;2023-02-21T09:01:55;11.20;99.90
34766;DHT22;20984;43.508;1.504;2023-02-21T09:04:20;11.20;99.90
34766;DHT22;20984;43.508;1.504;2023-02-21T09:06:46;11.20;99.90
34766;DHT22;20984;43.508;1.504;2023-02-21T09:09:12;11.40;99.90
34766;DHT22;20984;43.508;1.504;2023-02-21T09:11:37;11.50;99.90
34766;DHT22;20984;43.508;1.504;2023-02-21T09:14:03;11.60;99.90
34766;DHT22;20984;43.508;1.504;2023-02-21T09:16:31;11.70;99.90
34766;DHT22;20984;43.508;1.504;2023-02-21T09:18:58;11.80;99.90
34766;DHT22;20984;43.508;1.504;2023-02-21T09:21:26;11.90;99.90
34766;DHT22;20984;43.508;1.504;2023-02-21T09:23:54;11.90;99.90
34766;DHT22;20984;43.508;1.504;2023-02-21T09:26:20;12.00;99.90
34766;DHT22;20984;43.508;1.504;2023-02-21T09:28:49;12.00;99.90
34766;DHT22;20984;43.508;1.504;2023-02-21T09:31:15;12.10;99.90
34766;DHT22;20984;43.508;1.504;2023-02-21T09:33:40;12.20;99.90
34766;DHT22;20984;43.508;1.504;2023-02-21T09:36:09;12.30;99.90
34766;DHT22;20984;43.508;1.504;2023-02-21T09:38:35;12.30;99.90
34766;DHT22;20984;43.508;1.504;2023-02-21T09:41:04;12.40;99.90
34766;DHT22;20984;43.508;1.504;2023-02-21T09:43:45;12.40;99.90
34766;DHT22;20984;43.508;1.504;2023-02-21T09:49:02;12.50;99.90
34766;DHT22;20984;43.508;1.504;2023-02-21T09:51:30;12.50;99.90
34766;DHT22;20984;43.508;1.504;2023-02-21T09:53:58;12.60;99.90
34766;DHT22;20984;43.508;1.504;2023-02-21T09:58:50;12.80;99.90
34766;DHT22;20984;43.508;1.504;2023-02-21T10:01:44;12.80;99.90
34766;DHT22;20984;43.508;1.504;2023-02-21T10:04:22;12.90;99.90
34766;DHT22;20984;43.508;1.504;2023-02-21T10:07:21;13.00;99.90
34766;DHT22;20984;43.508;1.504;2023-02-21T10:09:59;13.00;99.90
34766;DHT22;20984;43.508;1.504;2023-02-21T10:12:57;12.90;99.90
34766;DHT22;20984;43.508;1.504;2023-02-21T10:18:43;12.90;99.90
34766;DHT22;20984;43.508;1.504;2023-02-21T10:21:34;12.80;99.90
34766;DHT22;20984;43.508;1.504;2023-02-21T10:24:08;12.70;99.90
34766;DHT22;20984;43.508;1.504;2023-02-21T10:26:37;12.60;99.90
34766;DHT22;20984;43.508;1.504;2023-02-21T10:29:11;12.60;99.90
34766;DHT22;20984;43.508;1.504;2023-02-21T10:31:42;12.60;99.90
34766;DHT22;20984;43.508;1.504;2023-02-21T10:34:25;12.70;99.90
34766;DHT22;20984;43.508;1.504;2023-02-21T10:36:53;13.00;99.90
34766;DHT22;20984;43.508;1.504;2023-02-21T10:39:34;13.20;99.90
34766;DHT22;20984;43.508;1.504;2023-02-21T10:42:02;13.30;99.90
34766;DHT22;20984;43.508;1.504;2023-02-21T10:44:31;13.30;99.90
34766;DHT22;20984;43.508;1.504;2023-02-21T10:47:13;13.40;99.90
34766;DHT22;20984;43.508;1.504;2023-02-21T10:52:16;13.60;99.90
34766;DHT22;20984;43.508;1.504;2023-02-21T10:55:18;13.70;99.90
34766;DHT22;20984;43.508;1.504;2023-02-21T10:57:46;13.70;99.90
34766;DHT22;20984;43.508;1.504;2023-02-21T11:02:55;13.80;99.90
34766;DHT22;20984;43.508;1.504;2023-02-21T11:05:23;14.00;99.90
34766;DHT22;20984;43.508;1.504;2023-02-21T11:08:05;14.00;99.90
34766;DHT22;20984;43.508;1.504;2023-02-21T11:10:35;14.00;99.90
34766;DHT22;20984;43.508;1.504;2023-02-21T11:13:15;14.00;99.90
34766;DHT22;20984;43.508;1.504;2023-02-21T11:15:42;14.00;99.90
34766;DHT22;20984;43.508;1.504;2023-02-21T11:18:17;14.00;99.90
34766;DHT22;20984;43.508;1.504;2023-02-21T11:20:47;14.00;99.90
34766;DHT22;20984;43.508;1.504;2023-02-21T11:23:28;14.00;99.90
34766;DHT22;20984;43.508;1.504;2023-02-21T11:26:14;14.10;99.90
34766;DHT22;20984;43.508;1.504;2023-02-21T11:28:42;14.20;99.90
34766;DHT22;20984;43.508;1.504;2023-02-21T11:31:27;14.20;99.90
34766;DHT22;20984;43.508;1.504;2023-02-21T11:34:03;14.10;99.90
34766;DHT22;20984;43.508;1.504;2023-02-21T11:36:32;14.20;99.90
34766;DHT22;20984;43.508;1.504;2023-02-21T11:39:15;14.20;99.90
34766;DHT22;20984;43.508;1.504;2023-02-21T11:44:39;14.30;99.90
34766;DHT22;20984;43.508;1.504;2023-02-21T11:47:11;14.40;99.90
34766;DHT22;20984;43.508;1.504;2023-02-21T11:50:05;14.50;99.90
34766;DHT22;20984;43.508;1.504;2023-02-21T11:52:38;14.60;99.90
34766;DHT22;20984;43.508;1.504;2023-02-21T11:55:13;14.60;99.90
34766;DHT22;20984;43.508;1.504;2023-02-21T11:58:24;14.70;99.90
34766;DHT22;20984;43.508;1.504;2023-02-21T12:01:00;14.70;99.90
34766;DHT22;20984;43.508;1.504;2023-02-21T12:03:51;14.80;99.90
34766;DHT22;20984;43.508;1.504;2023-02-21T12:06:44;14.70;99.90
34766;DHT22;20984;43.508;1.504;2023-02-21T12:09:36;14.90;99.90
34766;DHT22;20984;43.508;1.504;2023-02-21T12:42:39;14.10;99.90
34766;DHT22;20984;43.508;1.504;2023-02-21T12:48:30;14.20;99.90
34766;DHT22;20984;43.508;1.504;2023-02-21T12:50:53;14.20;99.90
34766;DHT22;20984;43.508;1.504;2023-02-21T12:53:25;14.20;99.90
34766;DHT22;20984;43.508;1.504;2023-02-21T12:56:08;14.20;99.90
34766;DHT22;20984;43.508;1.504;2023-02-21T13:01:14;14.20;99.90
34766;DHT22;20984;43.508;1.504;2023-02-21T13:06:41;14.10;99.90
34766;DHT22;20984;43.508;1.504;2023-02-21T13:09:16;14.20;99.90
34766;DHT22;20984;43.508;1.504;2023-02-21T13:14:19;14.30;99.90
34766;DHT22;20984;43.508;1.504;2023-02-21T13:16:47;14.40;99.90
34766;DHT22;20984;43.508;1.504;2023-02-21T13:19:14;14.60;99.90
34766;DHT22;20984;43.508;1.504;2023-02-21T13:21:54;14.80;99.90
34766;DHT22;20984;43.508;1.504;2023-02-21T13:24:54;15.10;99.90
34766;DHT22;20984;43.508;1.504;2023-02-21T13:27:33;15.30;99.90
34766;DHT22;20984;43.508;1.504;2023-02-21T13:30:37;15.40;99.90
34766;DHT22;20984;43.508;1.504;2023-02-21T13:33:01;15.50;99.90
34766;DHT22;20984;43.508;1.504;2023-02-21T13:35:38;15.70;99.90
34766;DHT22;20984;43.508;1.504;2023-02-21T13:38:06;15.80;99.90
34766;DHT22;20984;43.508;1.504;2023-02-21T13:43:24;15.80;99.90
34766;DHT22;20984;43.508;1.504;2023-02-21T13:45:51;15.80;99.90
34766;DHT22;20984;43.508;1.504;2023-02-21T13:48:29;15.70;99.90
34766;DHT22;20984;43.508;1.504;2023-02-21T13:50:57;15.50;99.90
34766;DHT22;20984;43.508;1.504;2023-02-21T13:58:34;15.10;99.90
34766;DHT22;20984;43.508;1.504;2023-02-21T14:03:53;15.10;99.90
34766;DHT22;20984;43.508;1.504;2023-02-21T14:06:53;14.90;99.90
34766;DHT22;20984;43.508;1.504;2023-02-21T14:09:20;14.90;99.90
34766;DHT22;20984;43.508;1.504;2023-02-21T14:11:49;15.00;99.90
34766;DHT22;20984;43.508;1.504;2023-02-21T14:14:29;15.00;99.90
34766;DHT22;20984;43.508;1.504;2023-02-21T14:17:03;15.10;99.90
34766;DHT22;20984;43.508;1.504;2023-02-21T14:24:46;15.20;99.90
34766;DHT22;20984;43.508;1.504;2023-02-21T14:29:41;15.30;99.90
34766;DHT22;20984;43.508;1.504;2023-02-21T15:04:13;14.90;99.90
34766;DHT22;20984;43.508;1.504;2023-02-21T15:06:44;14.90;99.90
34766;DHT22;20984;43.508;1.504;2023-02-21T15:09:18;14.90;99.90
34766;DHT22;20984;43.508;1.504;2023-02-21T15:11:45;14.80;99.90
34766;DHT22;20984;43.508;1.504;2023-02-21T15:14:19;14.80;99.90
34766;DHT22;20984;43.508;1.504;2023-02-21T15:16:58;14.70;99.90
34766;DHT22;20984;43.508;1.504;2023-02-21T15:19:33;14.50;99.90
34766;DHT22;20984;43.508;1.504;2023-02-21T15:22:24;14.50;99.90
34766;DHT22;20984;43.508;1.504;2023-02-21T15:27:51;14.30;99.90
34766;DHT22;20984;43.508;1.504;2023-02-21T15:30:18;14.30;99.90
34766;DHT22;20984;43.508;1.504;2023-02-21T15:33:10;14.30;99.90
34766;DHT22;20984;43.508;1.504;2023-02-21T15:35:50;14.30;99.90
34766;DHT22;20984;43.508;1.504;2023-02-21T15:40:47;14.10;99.90
34766;DHT22;20984;43.508;1.504;2023-02-21T15:43:36;14.10;99.90
34766;DHT22;20984;43.508;1.504;2023-02-21T15:46:06;14.10;99.90
34766;DHT22;20984;43.508;1.504;2023-02-21T15:48:33;14.10;99.90
34766;DHT22;20984;43.508;1.504;2023-02-21T15:51:04;14.00;99.90
34766;DHT22;20984;43.508;1.504;2023-02-21T15:53:32;14.00;99.90
34766;DHT22;20984;43.508;1.504;2023-02-21T15:56:23;13.90;99.90
34766;DHT22;20984;43.508;1.504;2023-02-21T15:59:09;13.80;99.90
34766;DHT22;20984;43.508;1.504;2023-02-21T16:01:35;13.80;99.90
34766;DHT22;20984;43.508;1.504;2023-02-21T16:04:21;13.70;99.90
34766;DHT22;20984;43.508;1.504;2023-02-21T16:06:48;13.70;99.90
34766;DHT22;20984;43.508;1.504;2023-02-21T16:09:27;13.60;99.90
34766;DHT22;20984;43.508;1.504;2023-02-21T16:19:40;13.50;99.90
34766;DHT22;20984;43.508;1.504;2023-02-21T16:22:23;13.50;99.90
34766;DHT22;20984;43.508;1.504;2023-02-21T16:24:49;13.40;99.90
34766;DHT22;20984;43.508;1.504;2023-02-21T16:27:16;13.30;99.90
34766;DHT22;20984;43.508;1.504;2023-02-21T16:29:43;13.20;99.90
34766;DHT22;20984;43.508;1.504;2023-02-21T16:32:18;13.20;99.90
34766;DHT22;20984;43.508;1.504;2023-02-21T16:34:46;13.20;99.90
34766;DHT22;20984;43.508;1.504;2023-02-21T16:37:15;13.10;99.90
34766;DHT22;20984;43.508;1.504;2023-02-21T16:39:41;13.10;99.90
34766;DHT22;20984;43.508;1.504;2023-02-21T16:42:06;13.00;99.90
34766;DHT22;20984;43.508;1.504;2023-02-21T16:44:32;13.00;99.90
34766;DHT22;20984;43.508;1.504;2023-02-21T16:46:58;12.90;99.90
34766;DHT22;20984;43.508;1.504;2023-02-21T16:49:24;12.80;99.90
34766;DHT22;20984;43.508;1.504;2023-02-21T16:51:50;12.70;99.90
34766;DHT22;20984;43.508;1.504;2023-02-21T16:54:16;12.70;99.90
34766;DHT22;20984;43.508;1.504;2023-02-21T16:56:45;12.60;99.90
34766;DHT22;20984;43.508;1.504;2023-02-21T16:59:17;12.50;99.90
34766;DHT22;20984;43.508;1.504;2023-02-21T17:01:43;12.50;99.90
34766;DHT22;20984;43.508;1.504;2023-02-21T17:04:19;12.40;99.90
34766;DHT22;20984;43.508;1.504;2023-02-21T17:07:05;12.30;99.90
34766;DHT22;20984;43.508;1.504;2023-02-21T17:09:35;12.20;99.90
34766;DHT22;20984;43.508;1.504;2023-02-21T17:12:07;12.20;99.90
34766;DHT22;20984;43.508;1.504;2023-02-21T17:14:33;12.10;99.90
34766;DHT22;20984;43.508;1.504;2023-02-21T17:16:58;12.00;99.90
34766;DHT22;20984;43.508;1.504;2023-02-21T17:19:24;11.90;99.90
34766;DHT22;20984;43.508;1.504;2023-02-21T17:21:51;11.90;99.90
34766;DHT22;20984;43.508;1.504;2023-02-21T17:24:17;11.80;99.90
34766;DHT22;20984;43.508;1.504;2023-02-21T17:26:43;11.70;99.90
34766;DHT22;20984;43.508;1.504;2023-02-21T17:29:10;11.70;99.90
34766;DHT22;20984;43.508;1.504;2023-02-21T17:31:36;11.60;99.90
34766;DHT22;20984;43.508;1.504;2023-02-21T17:34:02;11.50;99.90
34766;DHT22;20984;43.508;1.504;2023-02-21T17:36:28;11.50;99.90
34766;DHT22;20984;43.508;1.504;2023-02-21T17:38:55;11.40;99.90
34766;DHT22;20984;43.508;1.504;2023-02-21T17:41:21;11.40;99.90
34766;DHT22;20984;43.508;1.504;2023-02-21T17:43:47;11.40;99.90
34766;DHT22;20984;43.508;1.504;2023-02-21T17:46:15;11.30;99.90
34766;DHT22;20984;43.508;1.504;2023-02-21T17:48:42;11.30;99.90
34766;DHT22;20984;43.508;1.504;2023-02-21T17:51:08;11.30;99.90
34766;DHT22;20984;43.508;1.504;2023-02-21T17:53:34;11.30;99.90
34766;DHT22;20984;43.508;1.504;2023-02-21T17:56:00;11.30;99.90
34766;DHT22;20984;43.508;1.504;2023-02-21T17:58:27;11.20;99.90
34766;DHT22;20984;43.508;1.504;2023-02-21T18:00:55;11.20;99.90
34766;DHT22;20984;43.508;1.504;2023-02-21T18:03:21;11.20;99.90
34766;DHT22;20984;43.508;1.504;2023-02-21T18:05:47;11.20;99.90
34766;DHT22;20984;43.508;1.504;2023-02-21T18:08:15;11.20;99.90
34766;DHT22;20984;43.508;1.504;2023-02-21T18:10:41;11.20;99.90
34766;DHT22;20984;43.508;1.504;2023-02-21T18:13:11;11.20;99.90
34766;DHT22;20984;43.508;1.504;2023-02-21T18:15:37;11.10;99.90
34766;DHT22;20984;43.508;1.504;2023-02-21T18:18:03;11.20;99.90
34766;DHT22;20984;43.508;1.504;2023-02-21T18:20:30;11.20;99.90
34766;DHT22;20984;43.508;1.504;2023-02-21T18:22:56;11.20;99.90
34766;DHT22;20984;43.508;1.504;2023-02-21T18:25:22;11.20;99.90
34766;DHT22;20984;43.508;1.504;2023-02-21T18:27:49;11.30;99.90
34766;DHT22;20984;43.508;1.504;2023-02-21T18:30:16;11.30;99.90
34766;DHT22;20984;43.508;1.504;2023-02-21T18:32:42;11.30;99.90
34766;DHT22;20984;43.508;1.504;2023-02-21T18:35:08;11.30;99.90
34766;DHT22;20984;43.508;1.504;2023-02-21T18:37:34;11.30;99.90
34766;DHT22;20984;43.508;1.504;2023-02-21T18:40:00;11.30;99.90
34766;DHT22;20984;43.508;1.504;2023-02-21T18:42:26;11.30;99.90
34766;DHT22;20984;43.508;1.504;2023-02-21T18:44:52;11.30;99.90
34766;DHT22;20984;43.508;1.504;2023-02-21T18:47:18;11.30;99.90